Canes, United Kingdom
Current Conditions -  °F | °C
As of 10:20 AM on Sunday 26 Oct 2014 (Local Time) from EGSS Reporting Station
Broken Clouds Broken Clouds  
Wind Chill: 55°   Ceiling: 2700
Heat Index: 55°   Visibility: 6mi
Dew Point: 48°   Wind: 16mph
Humidity: 77%   Direction: 220°SW
Pressure: 30.15"   Gusts: NA
Location:  51.78°N, 0.13°E
Report Text: EGSS 260920Z 22014KT 9999 BKN027 13/09 Q1021
Loading
Personal Weather Stations






























Interactive Weather Map
Tropical Storm Tracking
New forecast layout! Learn more

10-Day Weather Forecast

Advertisements
Track Severe Weather on mobile